Delta Virtual Airport Information Service

Detroit Metropolitan Wayne County Airport

ICAO: KDTW Country: United States
Latitude: 42.2124 Longitude: -83.3533
Latest Arrival : DAL1453 (KPHX-KDTW) Latest Departure : DALJUMP (KDTW-KLAX)


WX CaptureLIVE
Data provided by noaa.gov | Fetched at 00:52:53

METAR : KDTW 250453Z 20003KT 10SM FEW250 22/18 A2997 RMK AO2 SLP145 T02170178 403060156

TAF : KDTW 250302Z 2503/2606 21005KT P6SM SKC TEMPO 2509/2513 4SM BR FM251400 16005KT P6SM BKN250 FM251700 20007KT P6SM BKN060 OVC150 PROB30 2519/2523 3SM TSRA OVC030CB


Runway Data for KDTW
Data provided by openaviationdata.com

Runway ID Mag Var Hdg Length Elevation Surface ILS Freq ILS Id ILS Slope
03L -6 34° 8499 ft 646 ft Asphalt -- -- --
03R -6 34° 10000 ft 646 ft Concrete 111.5 IHUU 3
04L -6 34° 10002 ft 646 ft Concrete 111.95 IHJT 3
04R -6 34° 12001 ft 646 ft Concrete 110.7 IDTW 3
09L -6 94° 8687 ft 646 ft Asphalt -- -- --
09R -6 95° 8486 ft 646 ft Concrete -- -- --
21L -6 214° 10000 ft 646 ft Concrete 111.5 IEJR 3
21R -6 214° 8499 ft 646 ft Asphalt -- -- --
22L -6 214° 12001 ft 646 ft Concrete 110.7 IDWC 2
22R -6 214° 10002 ft 646 ft Concrete 111.95 IJKI 3
27L -6 275° 8486 ft 646 ft Concrete 110.15 IEPA 3
27R -6 274° 8687 ft 646 ft Asphalt 108.5 IDMI 3

Detroit Metropolitan Wayne County Airport, United States
Use only for reference purposes



Not for navigational purposes.